EDT,Max TemperatureF,Mean TemperatureF,Min TemperatureF,Max Dew PointF,MeanDew PointF,Min DewpointF,Max Humidity, Mean Humidity, Min Humidity, Max Sea Level PressureIn, Mean Sea Level PressureIn, Min Sea Level PressureIn, Max VisibilityMiles, Mean VisibilityMiles, Min VisibilityMiles, Max Wind SpeedMPH, Mean Wind SpeedMPH, Max Gust SpeedMPH,PrecipitationIn, CloudCover, Events, WindDirDegrees
2013-3-1,62,59,55,49,43,36,67,56,43,30.04,29.99,29.93,10,10,10,17,10,24,0.00,4,,339
2013-3-2,63,55,46,41,39,37,71,55,46,30.08,30.02,30.00,10,10,10,23,11,29,T,4,,341
2013-3-3,56,49,41,39,35,29,63,56,50,30.17,30.07,29.99,10,10,10,23,12,31,0.00,4,,344
2013-3-4,66,53,39,43,37,30,89,59,31,30.24,30.17,30.13,10,10,10,17,7,20,0.00,1,,352
2013-3-5,71,56,40,62,52,38,93,76,57,30.18,30.12,30.06,10,10,10,13,7,17,0.00,0,,190
2013-3-6,67,61,54,64,49,36,93,67,36,30.15,30.06,29.98,10,10,6,29,15,38,0.02,3,Rain,301
2013-3-7,64,54,44,45,37,31,86,57,34,30.23,30.19,30.14,10,10,10,17,8,22,0.00,0,,356
2013-3-8,74,59,43,49,43,35,93,65,25,30.24,30.19,30.14,10,9,6,16,6,18,0.00,0,,21
2013-3-9,78,63,48,51,45,39,93,56,26,30.21,30.17,30.12,10,10,7,16,7,20,0.00,0,,71
2013-3-10,80,69,57,56,53,49,80,64,39,30.15,30.10,30.05,10,10,10,24,8,30,0.00,1,,102
2013-3-11,78,67,56,61,57,54,93,71,45,30.09,30.00,29.91,10,10,10,22,13,26,0.00,1,,148
2013-3-12,71,64,57,66,60,51,93,83,68,30.06,29.94,29.87,10,8,2,24,14,33,0.44,5,Rain,241
2013-3-13,74,65,55,51,42,30,80,52,22,30.20,30.12,30.05,10,10,10,21,10,26,0.00,0,,346
2013-3-14,67,59,50,49,36,24,72,46,22,30.26,30.21,30.17,10,10,10,21,11,26,0.00,0,,350
2013-3-15,73,57,40,45,39,26,96,58,20,30.29,30.23,30.17,10,10,10,14,6,18,0.00,0,,19
2013-3-16,71,58,44,58,50,42,93,75,49,30.19,30.15,30.09,10,10,7,15,5,20,0.00,0,,190
2013-3-17,77,64,50,58,54,49,100,77,49,30.13,30.07,30.01,10,8,2,16,6,20,0.00,2,,151
2013-3-18,77,68,59,67,63,57,97,86,64,30.04,29.98,29.91,10,10,8,26,10,31,0.05,4,Rain,169
2013-3-19,78,70,61,65,63,61,100,85,64,30.01,29.95,29.89,10,9,4,16,6,22,0.00,2,,286
2013-3-20,73,65,57,64,61,56,100,84,57,29.97,29.91,29.82,10,9,4,29,8,35,0.36,4,Rain,315
2013-3-21,70,59,47,57,42,29,100,57,24,29.99,29.94,29.88,10,10,10,16,7,22,0.00,0,,347
2013-3-22,78,62,46,70,55,41,90,74,42,29.99,29.94,29.89,10,10,7,17,7,23,0.03,5,Rain,146
2013-3-23,79,73,66,72,69,66,100,93,79,29.97,29.88,29.81,10,6,0,23,11,29,T,7,Fog,155
2013-3-24,78,74,69,72,70,68,100,94,82,29.82,29.73,29.67,10,6,0,25,14,32,0.15,7,Fog-Rain-Thunderstorm,214
2013-3-25,69,62,54,68,48,36,97,61,34,30.06,29.91,29.77,10,10,6,23,12,32,0.00,0,,324
2013-3-26,59,53,46,45,36,32,62,50,37,30.25,30.16,30.05,10,10,10,28,14,38,0.00,1,,338
2013-3-27,60,52,43,39,34,29,76,53,35,30.33,30.27,30.22,10,10,10,17,8,29,0.00,0,,359
2013-3-28,72,57,41,41,35,20,93,55,15,30.31,30.26,30.20,10,10,9,17,6,20,0.00,0,,21
2013-3-29,75,60,45,51,42,31,86,57,19,30.33,30.26,30.20,10,10,10,16,7,20,0.00,0,,20
2013-3-30,74,62,49,56,50,45,93,68,41,30.25,30.21,30.15,10,10,10,16,6,21,0.00,0,,163
2013-3-31,79,67,55,62,56,50,86,69,45,30.16,30.10,30.03,10,10,10,18,9,24,0.00,0,,176